sensor_id;sensor_type;location;lat;lon;timestamp;temperature;humidity
82788;DHT22;72529;51.786;4.662;2024-02-28T00:02:00;6.96;75.75
82788;DHT22;72529;51.786;4.662;2024-02-28T00:04:25;6.85;75.51
82788;DHT22;72529;51.786;4.662;2024-02-28T00:06:51;6.81;75.74
82788;DHT22;72529;51.786;4.662;2024-02-28T00:09:16;6.79;75.86
82788;DHT22;72529;51.786;4.662;2024-02-28T00:11:43;6.81;76.07
82788;DHT22;72529;51.786;4.662;2024-02-28T00:14:10;6.86;75.84
82788;DHT22;72529;51.786;4.662;2024-02-28T00:16:36;6.85;75.78
82788;DHT22;72529;51.786;4.662;2024-02-28T00:19:01;6.85;75.82
82788;DHT22;72529;51.786;4.662;2024-02-28T00:21:26;6.81;75.46
82788;DHT22;72529;51.786;4.662;2024-02-28T00:23:52;6.72;75.46
82788;DHT22;72529;51.786;4.662;2024-02-28T00:26:17;6.67;75.63
82788;DHT22;72529;51.786;4.662;2024-02-28T00:28:43;6.62;75.94
82788;DHT22;72529;51.786;4.662;2024-02-28T00:31:08;6.59;76.27
82788;DHT22;72529;51.786;4.662;2024-02-28T00:33:33;6.56;76.50
82788;DHT22;72529;51.786;4.662;2024-02-28T00:35:59;6.55;76.71
82788;DHT22;72529;51.786;4.662;2024-02-28T00:38:24;6.56;76.65
82788;DHT22;72529;51.786;4.662;2024-02-28T00:40:50;6.56;76.64
82788;DHT22;72529;51.786;4.662;2024-02-28T00:43:15;6.59;76.60
82788;DHT22;72529;51.786;4.662;2024-02-28T00:45:40;6.54;76.40
82788;DHT22;72529;51.786;4.662;2024-02-28T00:48:06;6.51;76.56
82788;DHT22;72529;51.786;4.662;2024-02-28T00:50:32;6.46;76.75
82788;DHT22;72529;51.786;4.662;2024-02-28T00:52:57;6.42;76.81
82788;DHT22;72529;51.786;4.662;2024-02-28T00:55:23;6.38;76.93
82788;DHT22;72529;51.786;4.662;2024-02-28T00:57:48;6.44;76.99
82788;DHT22;72529;51.786;4.662;2024-02-28T01:00:14;6.42;77.11
82788;DHT22;72529;51.786;4.662;2024-02-28T01:02:40;6.41;76.84
82788;DHT22;72529;51.786;4.662;2024-02-28T01:05:07;6.42;76.65
82788;DHT22;72529;51.786;4.662;2024-02-28T01:07:32;6.42;76.52
82788;DHT22;72529;51.786;4.662;2024-02-28T01:09:58;6.38;76.56
82788;DHT22;72529;51.786;4.662;2024-02-28T01:12:23;6.45;76.52
82788;DHT22;72529;51.786;4.662;2024-02-28T01:14:49;6.45;76.55
82788;DHT22;72529;51.786;4.662;2024-02-28T01:17:14;6.48;76.40
82788;DHT22;72529;51.786;4.662;2024-02-28T01:19:39;6.44;76.22
82788;DHT22;72529;51.786;4.662;2024-02-28T01:22:05;6.45;76.21
82788;DHT22;72529;51.786;4.662;2024-02-28T01:24:30;6.42;76.18
82788;DHT22;72529;51.786;4.662;2024-02-28T01:26:56;6.40;76.26
82788;DHT22;72529;51.786;4.662;2024-02-28T01:29:21;6.37;76.33
82788;DHT22;72529;51.786;4.662;2024-02-28T01:31:47;6.35;76.37
82788;DHT22;72529;51.786;4.662;2024-02-28T01:34:12;6.34;76.49
82788;DHT22;72529;51.786;4.662;2024-02-28T01:36:38;6.34;76.62
82788;DHT22;72529;51.786;4.662;2024-02-28T01:39:03;6.34;76.59
82788;DHT22;72529;51.786;4.662;2024-02-28T01:41:28;6.33;76.55
82788;DHT22;72529;51.786;4.662;2024-02-28T01:43:54;6.24;76.43
82788;DHT22;72529;51.786;4.662;2024-02-28T01:46:26;6.23;76.53
82788;DHT22;72529;51.786;4.662;2024-02-28T01:48:53;6.25;76.72
82788;DHT22;72529;51.786;4.662;2024-02-28T01:51:19;6.25;76.77
82788;DHT22;72529;51.786;4.662;2024-02-28T01:53:48;6.24;76.72
82788;DHT22;72529;51.786;4.662;2024-02-28T01:56:14;6.23;76.94
82788;DHT22;72529;51.786;4.662;2024-02-28T01:58:45;6.25;77.01
82788;DHT22;72529;51.786;4.662;2024-02-28T02:01:13;6.23;76.91
82788;DHT22;72529;51.786;4.662;2024-02-28T02:03:39;6.23;76.88
82788;DHT22;72529;51.786;4.662;2024-02-28T02:06:05;6.28;77.08
82788;DHT22;72529;51.786;4.662;2024-02-28T02:08:31;6.25;77.16
82788;DHT22;72529;51.786;4.662;2024-02-28T02:10:57;6.28;77.20
82788;DHT22;72529;51.786;4.662;2024-02-28T02:13:23;6.31;77.08
82788;DHT22;72529;51.786;4.662;2024-02-28T02:15:48;6.28;77.12
82788;DHT22;72529;51.786;4.662;2024-02-28T02:18:14;6.30;77.17
82788;DHT22;72529;51.786;4.662;2024-02-28T02:20:44;6.33;76.95
82788;DHT22;72529;51.786;4.662;2024-02-28T02:23:10;6.34;77.05
82788;DHT22;72529;51.786;4.662;2024-02-28T02:25:46;6.35;77.19
82788;DHT22;72529;51.786;4.662;2024-02-28T02:28:12;6.33;77.15
82788;DHT22;72529;51.786;4.662;2024-02-28T02:30:38;6.34;77.17
82788;DHT22;72529;51.786;4.662;2024-02-28T02:33:05;6.35;77.26
82788;DHT22;72529;51.786;4.662;2024-02-28T02:35:30;6.40;77.16
82788;DHT22;72529;51.786;4.662;2024-02-28T02:37:56;6.37;77.23
82788;DHT22;72529;51.786;4.662;2024-02-28T02:40:22;6.40;77.26
82788;DHT22;72529;51.786;4.662;2024-02-28T02:42:48;6.48;77.09
82788;DHT22;72529;51.786;4.662;2024-02-28T02:45:13;6.51;77.20
82788;DHT22;72529;51.786;4.662;2024-02-28T02:47:39;6.51;77.16
82788;DHT22;72529;51.786;4.662;2024-02-28T02:50:05;6.55;77.22
82788;DHT22;72529;51.786;4.662;2024-02-28T02:52:30;6.58;77.17
82788;DHT22;72529;51.786;4.662;2024-02-28T02:54:56;6.64;77.19
82788;DHT22;72529;51.786;4.662;2024-02-28T02:57:21;6.61;77.11
82788;DHT22;72529;51.786;4.662;2024-02-28T02:59:47;6.71;77.10
82788;DHT22;72529;51.786;4.662;2024-02-28T03:02:12;6.74;77.04
82788;DHT22;72529;51.786;4.662;2024-02-28T03:04:37;6.75;77.05
82788;DHT22;72529;51.786;4.662;2024-02-28T03:07:03;6.72;76.84
82788;DHT22;72529;51.786;4.662;2024-02-28T03:09:28;6.75;76.94
82788;DHT22;72529;51.786;4.662;2024-02-28T03:11:54;6.79;76.81
82788;DHT22;72529;51.786;4.662;2024-02-28T03:14:19;6.78;77.02
82788;DHT22;72529;51.786;4.662;2024-02-28T03:16:47;6.78;76.82
82788;DHT22;72529;51.786;4.662;2024-02-28T03:19:14;6.86;76.48
82788;DHT22;72529;51.786;4.662;2024-02-28T03:21:40;6.79;76.41
82788;DHT22;72529;51.786;4.662;2024-02-28T03:24:06;6.76;76.62
82788;DHT22;72529;51.786;4.662;2024-02-28T03:26:32;6.78;76.51
82788;DHT22;72529;51.786;4.662;2024-02-28T03:28:58;6.79;76.53
82788;DHT22;72529;51.786;4.662;2024-02-28T03:31:24;6.75;76.67
82788;DHT22;72529;51.786;4.662;2024-02-28T03:33:50;6.78;76.64
82788;DHT22;72529;51.786;4.662;2024-02-28T03:36:16;6.76;76.69
82788;DHT22;72529;51.786;4.662;2024-02-28T03:38:41;6.76;76.88
82788;DHT22;72529;51.786;4.662;2024-02-28T03:41:07;6.82;76.87
82788;DHT22;72529;51.786;4.662;2024-02-28T03:43:32;6.89;76.86
82788;DHT22;72529;51.786;4.662;2024-02-28T03:45:58;6.91;76.66
82788;DHT22;72529;51.786;4.662;2024-02-28T03:48:23;6.97;76.59
82788;DHT22;72529;51.786;4.662;2024-02-28T03:50:48;6.93;76.67
82788;DHT22;72529;51.786;4.662;2024-02-28T03:53:14;7.00;76.42
82788;DHT22;72529;51.786;4.662;2024-02-28T03:55:39;7.06;76.62
82788;DHT22;72529;51.786;4.662;2024-02-28T03:58:05;7.05;76.43
82788;DHT22;72529;51.786;4.662;2024-02-28T04:00:34;7.03;76.77
82788;DHT22;72529;51.786;4.662;2024-02-28T04:03:00;7.02;77.06
82788;DHT22;72529;51.786;4.662;2024-02-28T04:05:25;7.06;77.09
82788;DHT22;72529;51.786;4.662;2024-02-28T04:07:51;7.09;77.02
82788;DHT22;72529;51.786;4.662;2024-02-28T04:10:16;7.09;76.93
82788;DHT22;72529;51.786;4.662;2024-02-28T04:12:43;7.12;77.07
82788;DHT22;72529;51.786;4.662;2024-02-28T04:15:10;7.09;77.36
82788;DHT22;72529;51.786;4.662;2024-02-28T04:17:37;7.07;77.46
82788;DHT22;72529;51.786;4.662;2024-02-28T04:20:03;7.06;77.79
82788;DHT22;72529;51.786;4.662;2024-02-28T04:22:30;7.16;77.46
82788;DHT22;72529;51.786;4.662;2024-02-28T04:24:57;7.10;77.41
82788;DHT22;72529;51.786;4.662;2024-02-28T04:27:22;7.02;77.80
82788;DHT22;72529;51.786;4.662;2024-02-28T04:29:48;6.99;78.26
82788;DHT22;72529;51.786;4.662;2024-02-28T04:32:13;6.96;78.52
82788;DHT22;72529;51.786;4.662;2024-02-28T04:34:39;6.95;78.55
82788;DHT22;72529;51.786;4.662;2024-02-28T04:37:04;7.05;78.45
82788;DHT22;72529;51.786;4.662;2024-02-28T04:39:29;7.07;78.38
82788;DHT22;72529;51.786;4.662;2024-02-28T04:41:55;7.05;78.48
82788;DHT22;72529;51.786;4.662;2024-02-28T04:44:20;7.09;78.22
82788;DHT22;72529;51.786;4.662;2024-02-28T04:46:46;7.05;78.61
82788;DHT22;72529;51.786;4.662;2024-02-28T04:49:11;7.07;78.57
82788;DHT22;72529;51.786;4.662;2024-02-28T04:51:36;7.09;78.64
82788;DHT22;72529;51.786;4.662;2024-02-28T04:54:02;7.12;78.65
82788;DHT22;72529;51.786;4.662;2024-02-28T04:56:27;7.19;78.52
82788;DHT22;72529;51.786;4.662;2024-02-28T04:58:53;7.34;77.74
82788;DHT22;72529;51.786;4.662;2024-02-28T05:01:18;7.34;77.66
82788;DHT22;72529;51.786;4.662;2024-02-28T05:03:44;7.30;77.59
82788;DHT22;72529;51.786;4.662;2024-02-28T05:06:09;7.31;77.62
82788;DHT22;72529;51.786;4.662;2024-02-28T05:08:37;7.31;77.79
82788;DHT22;72529;51.786;4.662;2024-02-28T05:11:03;7.37;77.66
82788;DHT22;72529;51.786;4.662;2024-02-28T05:13:29;7.30;77.88
82788;DHT22;72529;51.786;4.662;2024-02-28T05:15:54;7.36;77.88
82788;DHT22;72529;51.786;4.662;2024-02-28T05:18:20;7.34;77.88
82788;DHT22;72529;51.786;4.662;2024-02-28T05:20:45;7.39;77.69
82788;DHT22;72529;51.786;4.662;2024-02-28T05:23:11;7.47;77.33
82788;DHT22;72529;51.786;4.662;2024-02-28T05:25:38;7.44;77.58
82788;DHT22;72529;51.786;4.662;2024-02-28T05:28:03;7.49;77.36
82788;DHT22;72529;51.786;4.662;2024-02-28T05:30:29;7.46;77.50
82788;DHT22;72529;51.786;4.662;2024-02-28T05:32:54;7.47;77.66
82788;DHT22;72529;51.786;4.662;2024-02-28T05:35:20;7.53;77.52
82788;DHT22;72529;51.786;4.662;2024-02-28T05:37:45;7.51;77.56
82788;DHT22;72529;51.786;4.662;2024-02-28T05:40:14;7.54;77.44
82788;DHT22;72529;51.786;4.662;2024-02-28T05:42:39;7.53;77.73
82788;DHT22;72529;51.786;4.662;2024-02-28T05:45:06;7.54;77.60
82788;DHT22;72529;51.786;4.662;2024-02-28T05:47:31;7.57;77.84
82788;DHT22;72529;51.786;4.662;2024-02-28T05:49:57;7.61;77.66
82788;DHT22;72529;51.786;4.662;2024-02-28T05:52:24;7.60;77.81
82788;DHT22;72529;51.786;4.662;2024-02-28T05:54:51;7.63;77.76
82788;DHT22;72529;51.786;4.662;2024-02-28T05:57:16;7.64;77.73
82788;DHT22;72529;51.786;4.662;2024-02-28T05:59:42;7.63;77.77
82788;DHT22;72529;51.786;4.662;2024-02-28T06:02:08;7.61;77.87
82788;DHT22;72529;51.786;4.662;2024-02-28T06:04:33;7.56;77.91
82788;DHT22;72529;51.786;4.662;2024-02-28T06:06:59;7.61;78.45
82788;DHT22;72529;51.786;4.662;2024-02-28T06:09:25;7.57;78.37
82788;DHT22;72529;51.786;4.662;2024-02-28T06:11:52;7.57;78.63
82788;DHT22;72529;51.786;4.662;2024-02-28T06:14:18;7.59;78.69
82788;DHT22;72529;51.786;4.662;2024-02-28T06:16:46;7.61;78.66
82788;DHT22;72529;51.786;4.662;2024-02-28T06:19:12;7.60;78.82
82788;DHT22;72529;51.786;4.662;2024-02-28T06:21:39;7.66;78.92
82788;DHT22;72529;51.786;4.662;2024-02-28T06:24:04;7.70;78.76
82788;DHT22;72529;51.786;4.662;2024-02-28T06:26:31;7.64;79.03
82788;DHT22;72529;51.786;4.662;2024-02-28T06:28:57;7.61;79.22
82788;DHT22;72529;51.786;4.662;2024-02-28T06:31:29;7.60;79.35
82788;DHT22;72529;51.786;4.662;2024-02-28T06:33:57;7.61;79.44
82788;DHT22;72529;51.786;4.662;2024-02-28T06:36:23;7.70;79.20
82788;DHT22;72529;51.786;4.662;2024-02-28T06:38:48;7.74;78.99
82788;DHT22;72529;51.786;4.662;2024-02-28T06:41:13;7.74;79.15
82788;DHT22;72529;51.786;4.662;2024-02-28T06:43:39;7.75;79.13
82788;DHT22;72529;51.786;4.662;2024-02-28T06:46:04;7.81;79.00
82788;DHT22;72529;51.786;4.662;2024-02-28T06:48:30;7.88;78.80
82788;DHT22;72529;51.786;4.662;2024-02-28T06:50:56;7.90;78.69
82788;DHT22;72529;51.786;4.662;2024-02-28T06:53:23;7.85;78.77
82788;DHT22;72529;51.786;4.662;2024-02-28T06:55:48;7.92;78.71
82788;DHT22;72529;51.786;4.662;2024-02-28T06:58:17;7.91;78.60
82788;DHT22;72529;51.786;4.662;2024-02-28T07:00:42;8.01;78.66
82788;DHT22;72529;51.786;4.662;2024-02-28T07:03:08;8.02;78.60
82788;DHT22;72529;51.786;4.662;2024-02-28T07:05:33;8.04;78.51
82788;DHT22;72529;51.786;4.662;2024-02-28T07:08:00;8.01;78.50
82788;DHT22;72529;51.786;4.662;2024-02-28T07:10:25;8.01;78.68
82788;DHT22;72529;51.786;4.662;2024-02-28T07:12:50;7.99;78.73
82788;DHT22;72529;51.786;4.662;2024-02-28T07:15:16;8.02;78.90
82788;DHT22;72529;51.786;4.662;2024-02-28T07:17:45;7.92;79.08
82788;DHT22;72529;51.786;4.662;2024-02-28T07:20:10;7.97;79.58
82788;DHT22;72529;51.786;4.662;2024-02-28T07:22:37;7.92;79.70
82788;DHT22;72529;51.786;4.662;2024-02-28T07:25:03;7.95;79.64
82788;DHT22;72529;51.786;4.662;2024-02-28T07:27:30;8.04;79.43
82788;DHT22;72529;51.786;4.662;2024-02-28T07:29:55;8.02;79.66
82788;DHT22;72529;51.786;4.662;2024-02-28T07:32:21;8.09;79.56
82788;DHT22;72529;51.786;4.662;2024-02-28T07:34:46;8.11;79.68
82788;DHT22;72529;51.786;4.662;2024-02-28T07:37:11;8.21;79.47
82788;DHT22;72529;51.786;4.662;2024-02-28T07:39:37;8.22;79.33
82788;DHT22;72529;51.786;4.662;2024-02-28T07:42:03;8.22;79.44
82788;DHT22;72529;51.786;4.662;2024-02-28T07:44:28;8.26;79.12
82788;DHT22;72529;51.786;4.662;2024-02-28T07:46:59;8.31;78.85
82788;DHT22;72529;51.786;4.662;2024-02-28T07:49:25;8.28;78.49
82788;DHT22;72529;51.786;4.662;2024-02-28T07:51:51;8.24;78.45
82788;DHT22;72529;51.786;4.662;2024-02-28T07:54:16;8.21;78.27
82788;DHT22;72529;51.786;4.662;2024-02-28T07:56:43;8.18;78.21
82788;DHT22;72529;51.786;4.662;2024-02-28T07:59:09;8.16;77.99
82788;DHT22;72529;51.786;4.662;2024-02-28T08:01:35;7.94;78.76
82788;DHT22;72529;51.786;4.662;2024-02-28T08:04:01;7.90;79.25
82788;DHT22;72529;51.786;4.662;2024-02-28T08:06:27;7.92;79.03
82788;DHT22;72529;51.786;4.662;2024-02-28T08:08:53;7.97;79.21
82788;DHT22;72529;51.786;4.662;2024-02-28T08:11:18;8.02;79.12
82788;DHT22;72529;51.786;4.662;2024-02-28T08:13:44;8.08;79.10
82788;DHT22;72529;51.786;4.662;2024-02-28T08:16:10;8.14;78.85
82788;DHT22;72529;51.786;4.662;2024-02-28T08:18:35;8.08;78.78
82788;DHT22;72529;51.786;4.662;2024-02-28T08:21:01;8.09;78.82
82788;DHT22;72529;51.786;4.662;2024-02-28T08:23:29;8.06;78.96
82788;DHT22;72529;51.786;4.662;2024-02-28T08:25:54;8.04;79.15
82788;DHT22;72529;51.786;4.662;2024-02-28T08:28:20;8.08;78.91
82788;DHT22;72529;51.786;4.662;2024-02-28T08:30:45;8.11;79.01
82788;DHT22;72529;51.786;4.662;2024-02-28T08:33:11;8.15;78.96
82788;DHT22;72529;51.786;4.662;2024-02-28T08:35:36;8.08;78.60
82788;DHT22;72529;51.786;4.662;2024-02-28T08:38:02;8.09;78.56
82788;DHT22;72529;51.786;4.662;2024-02-28T08:40:29;8.02;78.76
82788;DHT22;72529;51.786;4.662;2024-02-28T08:42:54;7.95;79.47
82788;DHT22;72529;51.786;4.662;2024-02-28T08:45:20;8.01;79.46
82788;DHT22;72529;51.786;4.662;2024-02-28T08:47:46;8.02;79.75
82788;DHT22;72529;51.786;4.662;2024-02-28T08:50:11;8.16;79.62
82788;DHT22;72529;51.786;4.662;2024-02-28T08:52:36;8.34;79.54
82788;DHT22;72529;51.786;4.662;2024-02-28T08:55:02;8.56;78.93
82788;DHT22;72529;51.786;4.662;2024-02-28T08:57:28;8.75;78.88
82788;DHT22;72529;51.786;4.662;2024-02-28T08:59:55;8.80;78.04
82788;DHT22;72529;51.786;4.662;2024-02-28T09:02:21;8.89;77.81
82788;DHT22;72529;51.786;4.662;2024-02-28T09:04:47;8.94;77.27
82788;DHT22;72529;51.786;4.662;2024-02-28T09:07:18;8.96;77.49
82788;DHT22;72529;51.786;4.662;2024-02-28T09:09:46;9.07;77.56
82788;DHT22;72529;51.786;4.662;2024-02-28T09:12:11;9.11;77.58
82788;DHT22;72529;51.786;4.662;2024-02-28T09:14:38;9.18;77.87
82788;DHT22;72529;51.786;4.662;2024-02-28T09:17:04;9.30;77.05
82788;DHT22;72529;51.786;4.662;2024-02-28T09:19:30;9.20;76.80
82788;DHT22;72529;51.786;4.662;2024-02-28T09:21:55;9.20;77.49
82788;DHT22;72529;51.786;4.662;2024-02-28T09:24:21;9.32;77.31
82788;DHT22;72529;51.786;4.662;2024-02-28T09:26:46;9.45;76.90
82788;DHT22;72529;51.786;4.662;2024-02-28T09:29:11;9.55;76.75
82788;DHT22;72529;51.786;4.662;2024-02-28T09:31:37;9.67;76.89
82788;DHT22;72529;51.786;4.662;2024-02-28T09:34:02;9.71;75.93
82788;DHT22;72529;51.786;4.662;2024-02-28T09:36:33;9.71;76.05
82788;DHT22;72529;51.786;4.662;2024-02-28T09:38:59;9.58;76.02
82788;DHT22;72529;51.786;4.662;2024-02-28T09:41:24;9.52;76.27
82788;DHT22;72529;51.786;4.662;2024-02-28T09:43:54;9.54;76.23
82788;DHT22;72529;51.786;4.662;2024-02-28T09:46:19;9.58;76.62
82788;DHT22;72529;51.786;4.662;2024-02-28T09:48:47;9.65;76.32
82788;DHT22;72529;51.786;4.662;2024-02-28T09:51:18;9.72;76.59
82788;DHT22;72529;51.786;4.662;2024-02-28T09:53:44;9.85;76.65
82788;DHT22;72529;51.786;4.662;2024-02-28T09:56:10;9.89;75.77
82788;DHT22;72529;51.786;4.662;2024-02-28T09:58:38;10.01;75.72
82788;DHT22;72529;51.786;4.662;2024-02-28T10:01:07;10.06;75.37
82788;DHT22;72529;51.786;4.662;2024-02-28T10:03:36;10.09;75.38
82788;DHT22;72529;51.786;4.662;2024-02-28T10:06:03;10.10;75.05
82788;DHT22;72529;51.786;4.662;2024-02-28T10:08:28;10.15;75.56
82788;DHT22;72529;51.786;4.662;2024-02-28T10:10:57;10.22;75.32
82788;DHT22;72529;51.786;4.662;2024-02-28T10:13:23;10.32;75.07
82788;DHT22;72529;51.786;4.662;2024-02-28T10:15:53;10.46;75.05
82788;DHT22;72529;51.786;4.662;2024-02-28T10:18:20;10.49;74.37
82788;DHT22;72529;51.786;4.662;2024-02-28T10:20:45;10.45;74.79
82788;DHT22;72529;51.786;4.662;2024-02-28T10:23:10;10.52;74.86
82788;DHT22;72529;51.786;4.662;2024-02-28T10:25:46;10.59;74.75
82788;DHT22;72529;51.786;4.662;2024-02-28T10:28:13;10.61;74.52
82788;DHT22;72529;51.786;4.662;2024-02-28T10:30:43;10.64;74.92
82788;DHT22;72529;51.786;4.662;2024-02-28T10:33:13;10.49;74.44
82788;DHT22;72529;51.786;4.662;2024-02-28T10:35:40;10.61;75.10
82788;DHT22;72529;51.786;4.662;2024-02-28T10:38:06;10.73;74.61
82788;DHT22;72529;51.786;4.662;2024-02-28T10:40:31;10.74;74.35
82788;DHT22;72529;51.786;4.662;2024-02-28T10:42:57;10.84;74.68
82788;DHT22;72529;51.786;4.662;2024-02-28T10:45:24;10.84;74.24
82788;DHT22;72529;51.786;4.662;2024-02-28T10:47:51;10.88;74.60
82788;DHT22;72529;51.786;4.662;2024-02-28T10:50:17;11.12;73.96
82788;DHT22;72529;51.786;4.662;2024-02-28T10:52:48;11.28;73.06
82788;DHT22;72529;51.786;4.662;2024-02-28T10:55:21;11.24;73.05
82788;DHT22;72529;51.786;4.662;2024-02-28T10:57:58;11.27;72.61
82788;DHT22;72529;51.786;4.662;2024-02-28T11:00:26;11.38;72.94
82788;DHT22;72529;51.786;4.662;2024-02-28T11:02:52;11.54;73.01
82788;DHT22;72529;51.786;4.662;2024-02-28T11:05:18;11.54;72.64
82788;DHT22;72529;51.786;4.662;2024-02-28T11:07:43;11.59;71.60
82788;DHT22;72529;51.786;4.662;2024-02-28T11:10:09;11.38;72.45
82788;DHT22;72529;51.786;4.662;2024-02-28T11:12:36;11.39;72.91
82788;DHT22;72529;51.786;4.662;2024-02-28T11:15:03;11.41;72.57
82788;DHT22;72529;51.786;4.662;2024-02-28T11:17:32;11.54;72.13
82788;DHT22;72529;51.786;4.662;2024-02-28T11:19:58;11.35;72.03
82788;DHT22;72529;51.786;4.662;2024-02-28T11:22:27;11.19;72.49
82788;DHT22;72529;51.786;4.662;2024-02-28T11:24:54;11.03;72.59
82788;DHT22;72529;51.786;4.662;2024-02-28T11:27:19;10.80;73.28
82788;DHT22;72529;51.786;4.662;2024-02-28T11:29:45;10.77;73.97
82788;DHT22;72529;51.786;4.662;2024-02-28T11:32:13;10.85;73.99
82788;DHT22;72529;51.786;4.662;2024-02-28T11:34:39;10.90;73.83
82788;DHT22;72529;51.786;4.662;2024-02-28T11:37:06;11.03;74.01
82788;DHT22;72529;51.786;4.662;2024-02-28T11:39:31;10.97;73.47
82788;DHT22;72529;51.786;4.662;2024-02-28T11:42:15;11.04;73.94
82788;DHT22;72529;51.786;4.662;2024-02-28T11:44:41;11.15;73.80
82788;DHT22;72529;51.786;4.662;2024-02-28T11:47:10;11.25;73.22
82788;DHT22;72529;51.786;4.662;2024-02-28T11:49:37;11.29;73.39
82788;DHT22;72529;51.786;4.662;2024-02-28T11:52:03;11.29;72.99
82788;DHT22;72529;51.786;4.662;2024-02-28T11:54:29;11.29;73.26
82788;DHT22;72529;51.786;4.662;2024-02-28T11:56:55;11.35;73.20
82788;DHT22;72529;51.786;4.662;2024-02-28T11:59:20;11.42;72.81
82788;DHT22;72529;51.786;4.662;2024-02-28T12:01:46;11.39;72.97
82788;DHT22;72529;51.786;4.662;2024-02-28T12:04:16;11.39;73.03
82788;DHT22;72529;51.786;4.662;2024-02-28T12:06:41;11.27;73.32
82788;DHT22;72529;51.786;4.662;2024-02-28T12:09:09;11.17;73.80
82788;DHT22;72529;51.786;4.662;2024-02-28T12:11:36;11.24;74.15
82788;DHT22;72529;51.786;4.662;2024-02-28T12:14:06;11.19;73.65
82788;DHT22;72529;51.786;4.662;2024-02-28T12:16:36;11.15;73.95
82788;DHT22;72529;51.786;4.662;2024-02-28T12:19:09;11.14;74.34
82788;DHT22;72529;51.786;4.662;2024-02-28T12:21:36;11.12;74.15
82788;DHT22;72529;51.786;4.662;2024-02-28T12:24:02;11.15;74.39
82788;DHT22;72529;51.786;4.662;2024-02-28T12:26:28;11.10;74.43
82788;DHT22;72529;51.786;4.662;2024-02-28T12:28:53;11.08;74.88
82788;DHT22;72529;51.786;4.662;2024-02-28T12:31:19;11.11;75.29
82788;DHT22;72529;51.786;4.662;2024-02-28T12:33:46;11.21;74.84
82788;DHT22;72529;51.786;4.662;2024-02-28T12:36:12;11.29;74.58
82788;DHT22;72529;51.786;4.662;2024-02-28T12:38:37;11.45;74.14
82788;DHT22;72529;51.786;4.662;2024-02-28T12:41:03;11.49;74.33
82788;DHT22;72529;51.786;4.662;2024-02-28T12:43:30;11.46;74.24
82788;DHT22;72529;51.786;4.662;2024-02-28T12:45:56;11.52;74.12
82788;DHT22;72529;51.786;4.662;2024-02-28T12:48:21;11.46;74.07
82788;DHT22;72529;51.786;4.662;2024-02-28T12:50:47;11.46;74.14
82788;DHT22;72529;51.786;4.662;2024-02-28T12:53:13;11.48;73.84
82788;DHT22;72529;51.786;4.662;2024-02-28T12:55:39;11.45;74.08
82788;DHT22;72529;51.786;4.662;2024-02-28T12:58:04;11.42;74.16
82788;DHT22;72529;51.786;4.662;2024-02-28T13:00:31;11.36;74.73
82788;DHT22;72529;51.786;4.662;2024-02-28T13:02:56;11.35;75.01
82788;DHT22;72529;51.786;4.662;2024-02-28T13:05:22;11.28;75.41
82788;DHT22;72529;51.786;4.662;2024-02-28T13:07:47;11.28;75.31
82788;DHT22;72529;51.786;4.662;2024-02-28T13:10:13;11.29;75.20
82788;DHT22;72529;51.786;4.662;2024-02-28T13:12:38;11.34;74.95
82788;DHT22;72529;51.786;4.662;2024-02-28T13:15:05;11.31;75.00
82788;DHT22;72529;51.786;4.662;2024-02-28T13:17:31;11.34;75.09
82788;DHT22;72529;51.786;4.662;2024-02-28T13:19:56;11.32;75.69
82788;DHT22;72529;51.786;4.662;2024-02-28T13:22:21;11.24;75.40
82788;DHT22;72529;51.786;4.662;2024-02-28T13:24:47;11.31;75.42
82788;DHT22;72529;51.786;4.662;2024-02-28T13:27:12;11.31;75.09
82788;DHT22;72529;51.786;4.662;2024-02-28T13:29:38;11.17;75.64
82788;DHT22;72529;51.786;4.662;2024-02-28T13:32:03;11.07;76.13
82788;DHT22;72529;51.786;4.662;2024-02-28T13:34:29;11.00;76.44
82788;DHT22;72529;51.786;4.662;2024-02-28T13:36:55;11.10;76.26
82788;DHT22;72529;51.786;4.662;2024-02-28T13:39:21;11.08;76.28
82788;DHT22;72529;51.786;4.662;2024-02-28T13:41:49;11.11;76.32
82788;DHT22;72529;51.786;4.662;2024-02-28T13:44:19;11.15;76.51
82788;DHT22;72529;51.786;4.662;2024-02-28T13:46:45;11.19;76.12
82788;DHT22;72529;51.786;4.662;2024-02-28T13:49:13;11.24;75.81
82788;DHT22;72529;51.786;4.662;2024-02-28T13:51:39;11.21;76.11
82788;DHT22;72529;51.786;4.662;2024-02-28T13:54:05;11.29;76.05
82788;DHT22;72529;51.786;4.662;2024-02-28T13:56:31;11.35;75.71
82788;DHT22;72529;51.786;4.662;2024-02-28T13:58:57;11.17;76.29
82788;DHT22;72529;51.786;4.662;2024-02-28T14:01:22;11.11;76.62
82788;DHT22;72529;51.786;4.662;2024-02-28T14:03:48;11.10;76.91
82788;DHT22;72529;51.786;4.662;2024-02-28T14:06:13;11.15;76.78
82788;DHT22;72529;51.786;4.662;2024-02-28T14:08:39;11.17;76.68
82788;DHT22;72529;51.786;4.662;2024-02-28T14:11:05;11.15;77.00
82788;DHT22;72529;51.786;4.662;2024-02-28T14:13:31;11.17;77.03
82788;DHT22;72529;51.786;4.662;2024-02-28T14:15:56;11.29;76.63
82788;DHT22;72529;51.786;4.662;2024-02-28T14:18:22;11.28;77.09
82788;DHT22;72529;51.786;4.662;2024-02-28T14:20:47;11.31;77.17
82788;DHT22;72529;51.786;4.662;2024-02-28T14:23:12;11.27;77.19
82788;DHT22;72529;51.786;4.662;2024-02-28T14:25:38;11.31;77.02
82788;DHT22;72529;51.786;4.662;2024-02-28T14:28:03;11.28;77.19
82788;DHT22;72529;51.786;4.662;2024-02-28T14:30:30;11.22;78.07
82788;DHT22;72529;51.786;4.662;2024-02-28T14:32:55;11.27;78.94
82788;DHT22;72529;51.786;4.662;2024-02-28T14:35:20;11.21;79.43
82788;DHT22;72529;51.786;4.662;2024-02-28T14:37:46;11.17;80.03
82788;DHT22;72529;51.786;4.662;2024-02-28T14:40:11;11.12;80.55
82788;DHT22;72529;51.786;4.662;2024-02-28T14:42:38;10.98;80.79
82788;DHT22;72529;51.786;4.662;2024-02-28T14:45:12;11.00;81.18
82788;DHT22;72529;51.786;4.662;2024-02-28T14:47:39;11.00;80.83
82788;DHT22;72529;51.786;4.662;2024-02-28T14:50:06;10.97;81.21
82788;DHT22;72529;51.786;4.662;2024-02-28T14:52:36;10.93;81.32
82788;DHT22;72529;51.786;4.662;2024-02-28T14:55:03;10.90;81.60
82788;DHT22;72529;51.786;4.662;2024-02-28T14:57:29;10.81;81.80
82788;DHT22;72529;51.786;4.662;2024-02-28T14:59:56;10.83;82.00
82788;DHT22;72529;51.786;4.662;2024-02-28T15:02:22;10.91;82.01
82788;DHT22;72529;51.786;4.662;2024-02-28T15:04:47;10.88;81.38
82788;DHT22;72529;51.786;4.662;2024-02-28T15:07:15;10.85;81.49
82788;DHT22;72529;51.786;4.662;2024-02-28T15:09:41;10.78;81.75
82788;DHT22;72529;51.786;4.662;2024-02-28T15:12:06;10.83;81.64
82788;DHT22;72529;51.786;4.662;2024-02-28T15:14:32;10.83;81.71
82788;DHT22;72529;51.786;4.662;2024-02-28T15:16:59;10.88;81.40
82788;DHT22;72529;51.786;4.662;2024-02-28T15:19:25;10.91;81.34
82788;DHT22;72529;51.786;4.662;2024-02-28T15:21:53;10.98;81.02
82788;DHT22;72529;51.786;4.662;2024-02-28T15:24:18;10.98;81.09
82788;DHT22;72529;51.786;4.662;2024-02-28T15:26:44;11.01;81.13
82788;DHT22;72529;51.786;4.662;2024-02-28T15:29:10;11.08;80.94
82788;DHT22;72529;51.786;4.662;2024-02-28T15:31:36;11.08;80.53
82788;DHT22;72529;51.786;4.662;2024-02-28T15:34:03;11.10;80.28